createdAt,value
2022-08-26T00:01:57.887Z,13.52
2022-08-26T00:04:32.119Z,15.05
2022-08-26T00:07:05.333Z,16.67
2022-08-26T00:09:40.129Z,16.92
2022-08-26T00:12:12.780Z,14.55
2022-08-26T00:14:45.144Z,13.00
2022-08-26T00:17:17.156Z,16.88
2022-08-26T00:19:49.189Z,18.77
2022-08-26T00:22:25.363Z,15.52
2022-08-26T00:24:58.328Z,13.82
2022-08-26T00:27:34.004Z,19.50
2022-08-26T00:30:14.358Z,15.95
2022-08-26T00:32:47.246Z,16.23
2022-08-26T00:35:21.533Z,16.90
2022-08-26T00:37:56.737Z,16.13
2022-08-26T00:40:35.595Z,17.52
2022-08-26T00:43:09.429Z,17.08
2022-08-26T00:45:49.729Z,16.83
2022-08-26T00:48:25.347Z,19.25
2022-08-26T00:51:07.557Z,17.95
2022-08-26T00:53:57.884Z,20.90
2022-08-26T00:56:38.871Z,19.70
2022-08-26T00:59:13.971Z,20.77
2022-08-26T01:01:49.495Z,16.08
2022-08-26T01:04:23.973Z,19.10
2022-08-26T01:06:58.211Z,24.70
2022-08-26T01:09:31.166Z,15.82
2022-08-26T01:12:04.302Z,13.52
2022-08-26T01:14:37.466Z,20.08
2022-08-26T01:17:10.006Z,15.60
2022-08-26T01:20:00.277Z,16.20
2022-08-26T01:22:56.219Z,17.58
2022-08-26T01:25:32.846Z,30.25
2022-08-26T01:28:09.465Z,19.65
2022-08-26T01:30:44.289Z,15.75
2022-08-26T01:33:19.878Z,16.27
2022-08-26T01:35:52.450Z,19.50
2022-08-26T01:38:24.714Z,20.10
2022-08-26T01:40:57.369Z,18.83
2022-08-26T01:43:33.266Z,16.73
2022-08-26T01:46:06.839Z,25.15
2022-08-26T01:48:44.945Z,18.38
2022-08-26T01:51:20.830Z,14.68
2022-08-26T01:53:53.265Z,14.93
2022-08-26T01:56:25.552Z,19.08
2022-08-26T02:01:41.551Z,17.35
2022-08-26T02:04:33.544Z,20.05
2022-08-26T02:07:10.015Z,18.13
2022-08-26T02:09:42.945Z,22.33
2022-08-26T02:12:17.722Z,18.73
2022-08-26T02:14:57.447Z,22.20
2022-08-26T02:17:35.562Z,17.85
2022-08-26T02:20:13.237Z,16.80
2022-08-26T02:22:47.894Z,22.27
2022-08-26T02:25:39.622Z,18.48
2022-08-26T02:28:13.237Z,18.40
2022-08-26T02:30:47.277Z,19.98
2022-08-26T02:33:19.721Z,19.08
2022-08-26T02:35:52.059Z,16.92
2022-08-26T02:38:24.125Z,21.95
2022-08-26T02:40:56.434Z,21.50
2022-08-26T02:43:31.697Z,17.58
2022-08-26T02:46:06.058Z,15.85
2022-08-26T02:48:38.437Z,16.40
2022-08-26T02:51:11.641Z,18.92
2022-08-26T02:53:45.323Z,23.52
2022-08-26T02:56:17.383Z,30.92
2022-08-26T02:58:50.358Z,20.38
2022-08-26T03:01:27.712Z,19.67
2022-08-26T03:04:03.170Z,18.45
2022-08-26T03:06:35.749Z,19.08
2022-08-26T03:09:09.631Z,22.65
2022-08-26T03:11:41.745Z,22.48
2022-08-26T03:14:13.824Z,20.70
2022-08-26T03:16:48.431Z,16.63
2022-08-26T03:19:23.386Z,19.77
2022-08-26T03:21:57.857Z,20.95
2022-08-26T03:24:30.608Z,19.35
2022-08-26T03:27:06.014Z,23.20
2022-08-26T03:29:58.572Z,19.20
2022-08-26T03:32:30.748Z,16.40
2022-08-26T03:35:02.802Z,26.52
2022-08-26T03:37:34.792Z,22.52
2022-08-26T03:40:10.554Z,17.40
2022-08-26T03:42:45.439Z,21.42
2022-08-26T03:45:20.174Z,17.23
2022-08-26T03:47:52.594Z,17.80
2022-08-26T03:50:25.646Z,19.88
2022-08-26T03:52:59.058Z,26.95
2022-08-26T03:55:33.292Z,24.90
2022-08-26T03:58:05.349Z,18.30
2022-08-26T04:00:37.516Z,20.90
2022-08-26T04:03:14.740Z,22.05
2022-08-26T04:05:52.449Z,16.75
2022-08-26T04:08:24.856Z,27.08
2022-08-26T04:11:01.328Z,19.85
2022-08-26T04:13:33.754Z,27.20
2022-08-26T04:16:06.146Z,25.77
2022-08-26T04:18:38.337Z,20.05
2022-08-26T04:21:18.773Z,19.55
2022-08-26T04:23:51.377Z,20.63
2022-08-26T04:26:24.455Z,22.45
2022-08-26T04:28:56.452Z,22.40
2022-08-26T04:31:28.577Z,21.33
2022-08-26T04:34:05.052Z,24.52
2022-08-26T04:36:37.895Z,26.42
2022-08-26T04:39:12.396Z,22.85
2022-08-26T04:41:45.077Z,22.15
2022-08-26T04:44:17.973Z,27.92
2022-08-26T04:46:50.003Z,28.63
2022-08-26T04:49:22.265Z,26.38
2022-08-26T04:51:55.029Z,22.83
2022-08-26T04:54:27.875Z,23.05
2022-08-26T04:57:00.490Z,28.65
2022-08-26T04:59:35.969Z,22.60
2022-08-26T05:02:11.974Z,25.27
2022-08-26T05:04:44.028Z,29.15
2022-08-26T05:07:17.708Z,22.65
2022-08-26T05:09:49.750Z,23.65
2022-08-26T05:12:21.978Z,26.83
2022-08-26T05:14:54.149Z,27.67
2022-08-26T05:17:29.884Z,23.50
2022-08-26T05:20:02.034Z,22.88
2022-08-26T05:22:34.065Z,23.73
2022-08-26T05:25:06.967Z,25.10
2022-08-26T05:27:38.998Z,26.48
2022-08-26T05:30:11.712Z,27.17
2022-08-26T05:32:43.929Z,31.00
2022-08-26T05:35:17.460Z,21.42
2022-08-26T05:37:50.012Z,22.33
2022-08-26T05:40:22.516Z,26.17
2022-08-26T05:42:55.694Z,23.80
2022-08-26T05:45:28.102Z,33.17
2022-08-26T05:48:00.099Z,24.55
2022-08-26T05:50:32.157Z,27.27
2022-08-26T05:53:04.611Z,24.15
2022-08-26T05:55:45.533Z,29.60
2022-08-26T05:58:22.624Z,19.20
2022-08-26T06:01:05.237Z,23.75
2022-08-26T06:03:40.380Z,24.85
2022-08-26T06:06:27.589Z,29.45
2022-08-26T06:09:04.614Z,32.10
2022-08-26T06:11:36.951Z,20.95
2022-08-26T06:14:09.554Z,24.67
2022-08-26T06:16:45.404Z,24.92
2022-08-26T06:19:17.626Z,22.45
2022-08-26T06:21:54.666Z,29.83
2022-08-26T06:24:45.899Z,21.13
2022-08-26T06:27:18.314Z,27.45
2022-08-26T06:29:51.669Z,29.70
2022-08-26T06:32:24.470Z,30.65
2022-08-26T06:34:56.801Z,27.30
2022-08-26T06:37:29.599Z,29.65
2022-08-26T06:40:01.737Z,40.72
2022-08-26T06:42:36.107Z,21.08
2022-08-26T06:45:08.702Z,25.40
2022-08-26T06:47:40.685Z,28.15
2022-08-26T06:50:12.910Z,26.60
2022-08-26T06:52:45.151Z,25.98
2022-08-26T06:55:17.219Z,27.42
2022-08-26T06:57:50.559Z,25.55
2022-08-26T07:00:22.712Z,31.17
2022-08-26T07:02:54.844Z,25.13
2022-08-26T07:05:27.058Z,36.08
2022-08-26T07:07:59.421Z,25.95
2022-08-26T07:10:32.023Z,26.75
2022-08-26T07:13:04.500Z,19.95
2022-08-26T07:15:42.771Z,30.30
2022-08-26T07:18:15.196Z,27.02
2022-08-26T07:20:47.212Z,26.92
2022-08-26T07:23:19.469Z,27.52
2022-08-26T07:25:51.470Z,21.52
2022-08-26T07:28:24.872Z,19.20
2022-08-26T07:30:58.551Z,23.75
2022-08-26T07:33:31.506Z,24.70
2022-08-26T07:36:04.207Z,25.85
2022-08-26T07:38:38.790Z,27.80
2022-08-26T07:41:13.358Z,17.90
2022-08-26T07:43:45.993Z,23.60
2022-08-26T07:46:29.961Z,20.90
2022-08-26T07:49:02.392Z,33.90
2022-08-26T07:51:35.764Z,26.88
2022-08-26T07:54:08.866Z,22.98
2022-08-26T07:56:41.143Z,26.13
2022-08-26T07:59:18.495Z,23.08
2022-08-26T08:01:51.431Z,26.67
2022-08-26T08:04:26.607Z,23.60
2022-08-26T08:06:58.959Z,21.05
2022-08-26T08:09:31.067Z,17.40
2022-08-26T08:12:04.626Z,17.63
2022-08-26T08:14:37.287Z,22.83
2022-08-26T08:17:09.677Z,22.45
2022-08-26T08:19:42.291Z,24.95
2022-08-26T08:22:17.600Z,21.10
2022-08-26T08:24:53.028Z,22.40
2022-08-26T08:27:25.978Z,28.40
2022-08-26T08:29:58.131Z,18.83
2022-08-26T08:32:30.314Z,23.60
2022-08-26T08:35:02.923Z,23.00
2022-08-26T08:37:44.093Z,19.20
2022-08-26T08:40:18.491Z,23.60
2022-08-26T08:43:39.487Z,17.60
2022-08-26T08:46:15.454Z,23.45
2022-08-26T08:48:54.677Z,25.63
2022-08-26T08:51:48.312Z,24.00
2022-08-26T08:54:21.994Z,15.13
2022-08-26T08:57:13.176Z,19.17
2022-08-26T09:00:03.771Z,23.60
2022-08-26T09:02:48.057Z,15.05
2022-08-26T09:05:30.024Z,20.50
2022-08-26T09:08:11.135Z,16.15
2022-08-26T09:11:00.620Z,16.02
2022-08-26T09:13:32.674Z,15.65
2022-08-26T09:16:14.368Z,16.88
2022-08-26T09:19:19.002Z,18.15
2022-08-26T09:22:00.352Z,23.52
2022-08-26T09:24:41.282Z,22.30
2022-08-26T09:27:44.444Z,13.27
2022-08-26T09:30:33.067Z,15.45
2022-08-26T09:33:10.150Z,26.60
2022-08-26T09:35:47.446Z,15.27
2022-08-26T09:38:30.585Z,17.63
2022-08-26T09:41:08.394Z,17.92
2022-08-26T09:43:40.875Z,14.27
2022-08-26T09:46:20.532Z,19.92
2022-08-26T09:48:53.324Z,17.92
2022-08-26T09:51:32.019Z,14.57
2022-08-26T09:54:05.706Z,23.95
2022-08-26T09:56:40.314Z,18.55
2022-08-26T09:59:12.572Z,18.75
2022-08-26T10:01:45.210Z,21.27
2022-08-26T10:04:23.257Z,19.15
2022-08-26T10:07:03.274Z,16.08
2022-08-26T10:09:43.154Z,14.70
2022-08-26T10:12:21.953Z,13.13
2022-08-26T10:15:00.557Z,20.87
2022-08-26T10:17:39.425Z,16.40
2022-08-26T10:20:23.847Z,20.97
2022-08-26T10:23:17.370Z,17.70
2022-08-26T10:26:05.849Z,20.42
2022-08-26T10:31:40.223Z,16.50
2022-08-26T10:34:14.195Z,19.35
2022-08-26T10:37:14.932Z,20.77
2022-08-26T10:40:11.973Z,12.82
2022-08-26T10:43:11.322Z,10.73
2022-08-26T10:45:51.508Z,18.13
2022-08-26T10:48:49.103Z,21.23
2022-08-26T10:51:35.629Z,13.98
2022-08-26T10:54:13.956Z,25.15
2022-08-26T10:57:03.844Z,14.85
2022-08-26T10:59:56.760Z,16.80
2022-08-26T11:02:41.042Z,17.48
2022-08-26T11:05:25.349Z,14.27
2022-08-26T11:08:19.517Z,15.63
2022-08-26T11:10:58.023Z,12.02
2022-08-26T11:14:01.285Z,20.75
2022-08-26T11:16:35.070Z,17.75
2022-08-26T11:19:10.849Z,25.65
2022-08-26T11:22:02.849Z,17.25
2022-08-26T11:24:53.392Z,16.70
2022-08-26T11:27:37.499Z,10.95
2022-08-26T11:30:13.190Z,17.40
2022-08-26T11:32:58.200Z,14.77
2022-08-26T11:35:47.703Z,17.15
2022-08-26T11:38:29.156Z,13.32
2022-08-26T11:41:16.625Z,21.15
2022-08-26T11:43:52.267Z,20.88
2022-08-26T11:46:31.393Z,18.23
2022-08-26T11:49:07.413Z,10.60
2022-08-26T11:51:40.927Z,16.42
2022-08-26T11:54:35.203Z,22.92
2022-08-26T11:57:12.679Z,15.32
2022-08-26T11:59:44.843Z,11.20
2022-08-26T12:02:18.189Z,16.05
2022-08-26T12:04:53.861Z,17.45
2022-08-26T12:07:29.059Z,14.90
2022-08-26T12:10:04.543Z,19.85
2022-08-26T12:12:39.510Z,17.58
2022-08-26T12:15:20.082Z,13.65
2022-08-26T12:17:54.592Z,15.07
2022-08-26T12:20:49.009Z,18.40
2022-08-26T12:23:47.919Z,16.40
2022-08-26T12:26:35.871Z,12.98
2022-08-26T12:29:27.146Z,12.90
2022-08-26T12:32:14.899Z,14.00
2022-08-26T12:34:49.216Z,17.23
2022-08-26T12:37:21.534Z,25.88
2022-08-26T12:39:54.279Z,21.88
2022-08-26T12:42:42.539Z,23.77
2022-08-26T12:45:56.307Z,32.42
2022-08-26T12:48:36.128Z,26.25
2022-08-26T12:56:41.235Z,28.40
2022-08-26T12:59:25.815Z,23.88
2022-08-26T13:01:58.054Z,20.08
2022-08-26T13:04:44.193Z,24.25
2022-08-26T13:07:21.676Z,20.88
2022-08-26T13:09:57.708Z,18.95
2022-08-26T13:12:37.605Z,22.35
2022-08-26T13:15:09.916Z,16.98
2022-08-26T13:17:42.009Z,17.02
2022-08-26T13:20:14.108Z,19.17
2022-08-26T13:22:46.171Z,13.90
2022-08-26T13:25:30.480Z,13.35
2022-08-26T13:28:02.733Z,12.82
2022-08-26T13:30:35.200Z,22.20
2022-08-26T13:33:08.865Z,13.27
2022-08-26T13:35:44.750Z,15.77
2022-08-26T13:38:33.339Z,16.77
2022-08-26T13:41:06.396Z,26.95
2022-08-26T13:43:38.416Z,24.40
2022-08-26T13:46:10.485Z,32.28
2022-08-26T13:48:42.567Z,28.48
2022-08-26T13:51:18.764Z,27.35
2022-08-26T13:53:51.807Z,32.88
2022-08-26T13:56:27.470Z,26.27
2022-08-26T13:59:01.311Z,30.17
2022-08-26T14:01:36.213Z,23.20
2022-08-26T14:04:08.800Z,17.58
2022-08-26T14:06:40.845Z,14.40
2022-08-26T14:09:12.950Z,8.13
2022-08-26T14:11:52.065Z,11.52
2022-08-26T14:14:26.990Z,19.73
2022-08-26T14:17:00.438Z,26.38
2022-08-26T14:19:32.759Z,16.33
2022-08-26T14:22:04.897Z,12.05
2022-08-26T14:24:36.983Z,10.60
2022-08-26T14:27:08.994Z,13.38
2022-08-26T14:29:41.506Z,11.07
2022-08-26T14:32:23.714Z,12.20
2022-08-26T14:34:56.430Z,11.77
2022-08-26T14:37:28.538Z,12.82
2022-08-26T14:40:00.660Z,13.15
2022-08-26T14:42:35.623Z,21.52
2022-08-26T14:45:11.527Z,19.13
2022-08-26T14:47:48.448Z,26.95
2022-08-26T14:50:25.285Z,25.48
2022-08-26T14:53:16.228Z,30.35
2022-08-26T14:55:51.652Z,41.70
2022-08-26T14:58:24.085Z,46.72
2022-08-26T15:00:57.609Z,42.72
2022-08-26T15:03:30.204Z,49.85
2022-08-26T15:06:02.649Z,47.17
2022-08-26T15:08:36.923Z,49.83
2022-08-26T15:11:09.091Z,45.47
2022-08-26T15:13:41.347Z,38.90
2022-08-26T15:16:14.245Z,45.47
2022-08-26T15:18:46.405Z,52.65
2022-08-26T15:21:23.018Z,35.22
2022-08-26T15:23:55.412Z,40.90
2022-08-26T15:26:29.967Z,39.80
2022-08-26T15:29:04.975Z,45.22
2022-08-26T15:31:38.074Z,32.65
2022-08-26T15:34:16.440Z,33.63
2022-08-26T15:36:49.452Z,30.17
2022-08-26T15:39:21.842Z,35.05
2022-08-26T15:41:56.240Z,41.65
2022-08-26T15:44:28.953Z,33.78
2022-08-26T15:47:01.064Z,35.10
2022-08-26T15:49:33.219Z,27.65
2022-08-26T15:52:05.545Z,32.58
2022-08-26T15:54:37.854Z,36.97
2022-08-26T15:57:12.372Z,34.20
2022-08-26T15:59:45.708Z,40.22
2022-08-26T16:02:17.895Z,37.03
2022-08-26T16:04:49.977Z,44.13
2022-08-26T16:07:22.350Z,37.72
2022-08-26T16:09:55.204Z,41.88
2022-08-26T16:12:27.687Z,43.67
2022-08-26T16:14:59.808Z,40.40
2022-08-26T16:17:31.998Z,35.08
2022-08-26T16:20:05.171Z,36.47
2022-08-26T16:22:37.203Z,33.25
2022-08-26T16:25:09.940Z,41.15
2022-08-26T16:27:42.111Z,39.53
2022-08-26T16:30:15.404Z,34.00
2022-08-26T16:32:48.648Z,35.92
2022-08-26T16:35:20.875Z,33.25
2022-08-26T16:37:53.599Z,32.20
2022-08-26T16:40:26.009Z,40.03
2022-08-26T16:42:58.783Z,37.85
2022-08-26T16:45:31.085Z,23.40
2022-08-26T16:48:05.042Z,31.88
2022-08-26T16:50:40.783Z,29.50
2022-08-26T16:56:05.484Z,24.17
2022-08-26T16:58:37.503Z,22.77
2022-08-26T17:01:09.962Z,17.42
2022-08-26T17:03:42.589Z,28.08
2022-08-26T17:06:15.392Z,25.75
2022-08-26T17:08:48.103Z,21.02
2022-08-26T17:11:20.258Z,19.25
2022-08-26T17:13:52.349Z,15.98
2022-08-26T17:16:27.145Z,22.77
2022-08-26T17:19:00.340Z,17.25
2022-08-26T17:21:35.043Z,15.25
2022-08-26T17:24:07.319Z,15.35
2022-08-26T17:26:39.338Z,16.95
2022-08-26T17:29:12.427Z,11.15
2022-08-26T17:31:44.605Z,12.55
2022-08-26T17:34:17.224Z,15.75
2022-08-26T17:36:50.107Z,19.20
2022-08-26T17:39:22.078Z,14.85
2022-08-26T17:41:54.105Z,8.65
2022-08-26T17:44:26.659Z,12.10
2022-08-26T17:46:58.623Z,9.98
2022-08-26T17:49:30.589Z,8.68
2022-08-26T17:52:03.284Z,9.65
2022-08-26T17:54:35.474Z,13.35
2022-08-26T17:57:10.716Z,9.35
2022-08-26T17:59:42.963Z,8.98
2022-08-26T18:02:16.034Z,6.28
2022-08-26T18:04:48.143Z,9.38
2022-08-26T18:07:20.353Z,7.90
2022-08-26T18:09:52.382Z,7.65
2022-08-26T18:12:24.370Z,10.52
2022-08-26T18:14:59.912Z,8.73
2022-08-26T18:17:32.016Z,8.18
2022-08-26T18:20:04.793Z,7.22
2022-08-26T18:22:36.847Z,12.20
2022-08-26T18:25:09.733Z,10.88
2022-08-26T18:27:42.174Z,6.97
2022-08-26T18:30:20.760Z,4.85
2022-08-26T18:32:53.570Z,6.00
2022-08-26T18:35:28.547Z,8.20
2022-08-26T18:38:10.347Z,11.15
2022-08-26T18:40:45.298Z,8.98
2022-08-26T18:43:17.333Z,10.57
2022-08-26T18:45:49.591Z,7.30
2022-08-26T18:48:23.207Z,15.93
2022-08-26T18:50:55.431Z,13.57
2022-08-26T18:53:29.487Z,7.85
2022-08-26T18:56:01.744Z,8.27
2022-08-26T18:58:33.778Z,10.70
2022-08-26T19:01:06.294Z,7.80
2022-08-26T19:03:38.385Z,7.60
2022-08-26T19:06:18.696Z,5.80
2022-08-26T19:11:32.624Z,5.22
2022-08-26T19:14:13.765Z,8.23
2022-08-26T19:16:48.747Z,10.55
2022-08-26T19:19:24.167Z,9.57
2022-08-26T19:21:56.200Z,11.10
2022-08-26T19:24:28.747Z,9.07
2022-08-26T19:27:02.251Z,10.85
2022-08-26T19:29:36.116Z,12.63
2022-08-26T19:32:08.707Z,9.35
2022-08-26T19:34:40.786Z,7.97
2022-08-26T19:37:12.769Z,7.05
2022-08-26T19:39:44.860Z,12.32
2022-08-26T19:42:17.092Z,11.60
2022-08-26T19:45:07.372Z,8.30
2022-08-26T19:47:53.591Z,12.23
2022-08-26T19:50:29.664Z,10.23
2022-08-26T19:53:04.186Z,10.07
2022-08-26T19:55:36.209Z,12.43
2022-08-26T19:58:08.393Z,6.57
2022-08-26T20:00:42.474Z,11.55
2022-08-26T20:03:15.823Z,9.45
2022-08-26T20:05:48.956Z,11.77
2022-08-26T20:08:22.641Z,11.10
2022-08-26T20:10:55.804Z,18.17
2022-08-26T20:13:28.372Z,9.60
2022-08-26T20:16:00.350Z,13.68
2022-08-26T20:18:50.936Z,11.25
2022-08-26T20:21:29.632Z,10.88
2022-08-26T20:24:09.477Z,11.98
2022-08-26T20:26:44.226Z,15.65
2022-08-26T20:29:18.448Z,11.43
2022-08-26T20:31:52.699Z,10.80
2022-08-26T20:34:26.384Z,12.88
2022-08-26T20:36:59.538Z,11.27
2022-08-26T20:39:31.934Z,9.95
2022-08-26T20:42:04.641Z,16.27
2022-08-26T20:44:37.811Z,13.32
2022-08-26T20:47:15.320Z,9.95
2022-08-26T20:49:47.382Z,9.63
2022-08-26T20:52:24.910Z,7.90
2022-08-26T20:54:57.142Z,11.20
2022-08-26T20:57:29.193Z,13.20
2022-08-26T21:00:01.336Z,18.40
2022-08-26T21:02:34.173Z,18.42
2022-08-26T21:05:07.739Z,12.55
2022-08-26T21:07:39.822Z,15.43
2022-08-26T21:10:12.881Z,15.88
2022-08-26T21:12:45.132Z,10.00
2022-08-26T21:15:17.251Z,21.67
2022-08-26T21:17:49.352Z,12.82
2022-08-26T21:20:21.649Z,16.02
2022-08-26T21:22:53.697Z,11.80
2022-08-26T21:25:26.187Z,10.30
2022-08-26T21:27:58.254Z,15.05
2022-08-26T21:30:30.312Z,15.25
2022-08-26T21:33:02.346Z,17.67
2022-08-26T21:35:34.832Z,8.68
2022-08-26T21:38:06.921Z,12.70
2022-08-26T21:40:38.981Z,12.23
2022-08-26T21:43:16.198Z,13.90
2022-08-26T21:46:14.568Z,11.52
2022-08-26T21:48:54.752Z,16.13
2022-08-26T21:51:30.814Z,12.10
2022-08-26T21:54:10.526Z,12.70
2022-08-26T21:56:46.780Z,14.38
2022-08-26T21:59:19.635Z,13.60
2022-08-26T22:01:51.734Z,14.63
2022-08-26T22:04:24.383Z,9.88
2022-08-26T22:06:59.587Z,13.82
2022-08-26T22:09:32.437Z,18.95
2022-08-26T22:12:05.238Z,17.83
2022-08-26T22:14:39.341Z,6.90
2022-08-26T22:17:12.035Z,8.68
2022-08-26T22:19:45.717Z,9.80
2022-08-26T22:22:18.563Z,8.27
2022-08-26T22:24:50.739Z,9.68
2022-08-26T22:27:23.329Z,11.07
2022-08-26T22:29:55.422Z,11.75
2022-08-26T22:32:27.508Z,14.65
2022-08-26T22:34:59.539Z,18.60
2022-08-26T22:37:31.586Z,11.30
2022-08-26T22:40:06.156Z,24.52
2022-08-26T22:42:39.500Z,10.48
2022-08-26T22:45:12.322Z,14.40
2022-08-26T22:47:44.356Z,9.23
2022-08-26T22:50:16.392Z,11.27
2022-08-26T22:52:48.376Z,13.07
2022-08-26T22:55:20.426Z,12.65
2022-08-26T22:57:52.869Z,7.43
2022-08-26T23:00:31.793Z,17.52
2022-08-26T23:03:04.992Z,10.23
2022-08-26T23:05:39.498Z,8.27
2022-08-26T23:08:12.782Z,9.10
2022-08-26T23:10:47.622Z,7.35
2022-08-26T23:13:20.199Z,8.18
2022-08-26T23:16:02.344Z,12.43
2022-08-26T23:18:34.435Z,8.88
2022-08-26T23:21:08.150Z,9.27
2022-08-26T23:23:40.161Z,11.57
2022-08-26T23:26:16.675Z,11.15
2022-08-26T23:28:49.602Z,11.00
2022-08-26T23:31:21.805Z,5.82
2022-08-26T23:34:12.203Z,4.80
2022-08-26T23:36:44.375Z,9.20
2022-08-26T23:39:18.669Z,7.55
2022-08-26T23:41:50.683Z,6.45
2022-08-26T23:44:22.696Z,9.80
2022-08-26T23:46:55.574Z,8.95
2022-08-26T23:49:28.258Z,8.82
2022-08-26T23:52:19.194Z,9.40
2022-08-26T23:54:52.934Z,8.45
2022-08-26T23:57:26.356Z,7.50
2022-08-26T23:59:58.365Z,15.77
